Time;durP1;ratioP1;P1;durP2;ratioP2;P2;SDS_P1;SDS_P2;PMS_P1;PMS_P2;Temp;Humidity;BMP_temperature;BMP_pressure;BME280_temperature;BME280_humidity;BME280_pressure;Samples;Min_cycle;Max_cycle;Signal;HPM_P1;HPM_P2
2023/09/18 00:01:20;;;;;;;12.57;11.57;;;;;;;23.57;51.41;95562.44;6273473;27;109378;-62
2023/09/18 00:04:23;;;;;;;12.90;11.90;;;;;;;23.66;51.62;95562.47;6265958;27;109128;-62
2023/09/18 00:07:28;;;;;;;13.85;12.65;;;;;;;23.63;51.47;95561.22;6254859;27;109598;-62
2023/09/18 00:10:31;;;;;;;14.52;13.32;;;;;;;23.74;51.31;95549.19;6253940;27;109041;-62
2023/09/18 00:13:34;;;;;;;15.00;13.80;;;;;;;23.65;51.29;95551.00;6255613;27;108997;-62
2023/09/18 00:16:37;;;;;;;16.02;14.68;;;;;;;23.72;51.57;95545.25;6237552;27;108956;-63
2023/09/18 00:19:58;;;;;;;15.10;13.80;;;;;;;23.86;50.87;95544.09;6227517;27;109962;-62
2023/09/18 00:23:02;;;;;;;16.73;15.48;;;;;;;23.81;50.98;95548.75;6250926;27;110533;-62
2023/09/18 00:26:06;;;;;;;16.63;15.47;;;;;;;23.67;51.28;95550.69;6239140;27;108979;-62
2023/09/18 00:29:09;;;;;;;17.43;16.03;;;;;;;23.54;51.54;95547.00;6251874;27;108818;-62
2023/09/18 00:32:12;;;;;;;17.80;16.40;;;;;;;23.53;51.81;95540.09;6251434;27;109035;-62
2023/09/18 00:35:15;;;;;;;19.02;17.48;;;;;;;23.58;51.90;95551.44;6238078;27;109171;-62
2023/09/18 00:38:20;;;;;;;19.00;17.50;;;;;;;23.55;51.54;95548.59;6256066;27;109558;-62
2023/09/18 00:41:23;;;;;;;19.45;18.05;;;;;;;23.40;51.86;95559.63;6254345;27;108813;-63
2023/09/18 00:44:27;;;;;;;19.75;18.33;;;;;;;23.42;52.01;95560.88;6247683;27;108959;-62
2023/09/18 00:47:30;;;;;;;20.25;18.75;;;;;;;23.26;52.23;95556.94;6258072;27;108965;-62
2023/09/18 00:50:33;;;;;;;19.85;18.35;;;;;;;23.34;52.03;95547.44;6262176;27;109992;-62
2023/09/18 00:53:39;;;;;;;20.50;19.00;;;;;;;23.21;52.41;95554.38;6250738;27;110467;-62
2023/09/18 00:56:42;;;;;;;20.65;19.05;;;;;;;23.11;52.75;95560.72;6262130;27;110122;-62
2023/09/18 00:59:47;;;;;;;20.63;19.10;;;;;;;23.22;52.06;95566.66;6261557;27;109152;-62
2023/09/18 01:02:50;;;;;;;20.47;18.97;;;;;;;23.16;52.38;95563.28;6258861;27;109165;-63
2023/09/18 01:05:54;;;;;;;19.90;18.40;;;;;;;23.20;51.83;95563.50;6247560;27;109025;-62
2023/09/18 01:08:59;;;;;;;19.65;18.05;;;;;;;23.19;52.22;95567.25;6261214;27;110712;-61
2023/09/18 01:12:09;;;;;;;17.73;16.30;;;;;;;23.12;52.51;95575.66;6255817;27;110110;-61
2023/09/18 01:15:16;;;;;;;16.85;15.50;;;;;;;22.97;52.33;95574.06;6232051;28;110092;-62
2023/09/18 01:18:19;;;;;;;16.00;14.80;;;;;;;23.03;52.22;95574.78;6252832;27;109048;-62
2023/09/18 01:21:22;;;;;;;16.03;14.80;;;;;;;23.09;52.05;95570.13;6260777;27;108849;-62
2023/09/18 01:24:27;;;;;;;14.57;13.38;;;;;;;23.06;52.12;95566.19;6261287;27;108989;-62
2023/09/18 01:27:34;;;;;;;14.60;13.50;;;;;;;23.04;52.14;95562.22;6250740;27;110141;-63
2023/09/18 01:30:38;;;;;;;13.82;12.73;;;;;;;22.92;52.41;95562.72;6261167;27;109115;-70
2023/09/18 01:33:42;;;;;;;14.80;13.60;;;;;;;22.89;52.26;95558.00;6261764;27;110225;-61
2023/09/18 01:36:46;;;;;;;14.10;13.00;;;;;;;22.96;52.92;95561.03;6273797;27;110068;-62
2023/09/18 01:39:52;;;;;;;14.27;13.18;;;;;;;23.00;52.04;95560.13;6250407;27;110332;-61
2023/09/18 01:42:55;;;;;;;14.00;13.00;;;;;;;23.02;52.13;95565.19;6261084;27;109206;-62
2023/09/18 01:45:58;;;;;;;15.55;14.35;;;;;;;23.01;52.30;95567.06;6261076;27;110052;-62
2023/09/18 01:49:01;;;;;;;15.17;13.97;;;;;;;23.09;52.15;95573.59;6260700;27;109314;-61
2023/09/18 01:52:06;;;;;;;14.83;13.63;;;;;;;22.93;52.57;95566.97;6251068;27;110613;-62
2023/09/18 01:55:11;;;;;;;15.07;13.88;;;;;;;22.91;52.31;95572.63;6259675;27;110071;-62
2023/09/18 01:58:14;;;;;;;14.80;13.60;;;;;;;22.78;53.01;95567.28;6260885;27;109260;-62
2023/09/18 02:01:19;;;;;;;13.43;12.43;;;;;;;22.79;52.71;95568.84;6250477;27;110326;-62
2023/09/18 02:04:25;;;;;;;14.00;13.00;;;;;;;22.76;52.81;95572.13;6257810;27;109179;-62
2023/09/18 02:07:48;;;;;;;14.48;13.38;;;;;;;22.74;52.98;95575.09;6235265;27;110346;-61
2023/09/18 02:10:53;;;;;;;14.25;13.05;;;;;;;22.75;52.93;95578.53;6246795;27;108967;-62
2023/09/18 02:13:56;;;;;;;13.50;12.40;;;;;;;22.75;53.02;95573.22;6235699;27;109065;-62
2023/09/18 02:17:00;;;;;;;15.10;13.80;;;;;;;22.72;53.00;95584.47;6259565;27;109267;-62
2023/09/18 02:20:11;;;;;;;14.32;13.23;;;;;;;22.68;53.16;95574.41;6257225;27;110219;-62
2023/09/18 02:23:15;;;;;;;14.13;13.02;;;;;;;22.68;52.65;95574.41;6257703;27;110027;-62
2023/09/18 02:26:19;;;;;;;14.90;13.70;;;;;;;22.72;52.60;95584.47;6252905;27;108893;-64
2023/09/18 02:29:23;;;;;;;13.30;12.20;;;;;;;22.69;52.54;95584.00;6259156;27;108929;-64
2023/09/18 02:32:26;;;;;;;14.13;13.03;;;;;;;22.60;53.18;95584.97;6260045;27;109071;-63
2023/09/18 02:35:30;;;;;;;12.77;11.77;;;;;;;22.62;52.66;95580.13;6249130;27;109078;-63
2023/09/18 02:38:33;;;;;;;12.52;11.63;;;;;;;22.74;52.48;95579.63;6259638;27;110199;-63
2023/09/18 02:41:38;;;;;;;14.00;13.00;;;;;;;22.73;52.28;95575.38;6260376;27;109935;-63
2023/09/18 02:44:41;;;;;;;13.00;12.00;;;;;;;22.75;52.09;95575.88;6248726;27;108995;-63
2023/09/18 02:47:44;;;;;;;13.80;12.67;;;;;;;22.63;52.78;95571.81;6226671;27;111680;-63
2023/09/18 02:50:48;;;;;;;12.82;11.82;;;;;;;22.53;52.56;95581.88;6248460;27;109938;-63
2023/09/18 02:53:51;;;;;;;13.43;12.43;;;;;;;22.51;53.13;95574.13;6246228;27;109871;-63
2023/09/18 02:56:55;;;;;;;13.38;12.27;;;;;;;22.43;53.08;95572.16;6241955;27;110011;-63
2023/09/18 02:59:58;;;;;;;13.40;12.30;;;;;;;22.46;53.13;95571.56;6247967;27;110342;-63
2023/09/18 03:03:02;;;;;;;12.15;11.25;;;;;;;22.41;52.89;95577.00;6243647;27;109983;-62
2023/09/18 03:06:06;;;;;;;12.30;11.45;;;;;;;22.43;53.08;95574.84;6259419;27;110821;-63
2023/09/18 03:09:09;;;;;;;12.50;11.50;;;;;;;22.98;51.69;95581.00;6246390;27;110306;-64
2023/09/18 03:12:14;;;;;;;12.07;11.07;;;;;;;23.36;51.47;95578.13;6232889;27;109566;-63
2023/09/18 03:15:17;;;;;;;10.63;9.73;;;;;;;23.55;50.80;95580.66;6252890;27;109032;-63
2023/09/18 03:18:20;;;;;;;11.57;10.55;;;;;;;23.70;50.80;95582.97;6250365;27;109100;-64
2023/09/18 03:21:23;;;;;;;17.75;16.25;;;;;;;23.78;50.56;95579.56;6243779;27;109618;-63
2023/09/18 03:24:26;;;;;;;43.83;40.72;;;;;;;23.90;50.90;95579.03;6254023;27;110017;-63
2023/09/18 03:27:31;;;;;;;61.77;57.17;;;;;;;23.94;51.01;95569.28;6254142;27;109937;-64
2023/09/18 03:30:34;;;;;;;49.20;45.20;;;;;;;23.97;50.95;95570.56;6259041;27;110002;-64
2023/09/18 03:33:38;;;;;;;66.70;61.80;;;;;;;23.99;50.78;95560.34;6247203;27;108857;-63
2023/09/18 03:36:41;;;;;;;57.37;53.40;;;;;;;23.99;50.89;95560.34;6257585;27;109162;-63
2023/09/18 03:39:44;;;;;;;45.27;41.97;;;;;;;23.93;50.74;95557.03;6257989;27;109206;-63
2023/09/18 03:42:49;;;;;;;42.08;39.08;;;;;;;23.85;51.03;95555.84;6248901;27;109052;-63
2023/09/18 03:45:53;;;;;;;41.65;38.65;;;;;;;23.89;50.80;95564.88;6249870;27;109096;-61
2023/09/18 03:48:57;;;;;;;40.80;37.80;;;;;;;23.90;50.82;95558.44;6246809;27;109997;-60
2023/09/18 03:52:00;;;;;;;34.87;32.27;;;;;;;23.86;50.61;95556.69;6238471;27;109410;-62
2023/09/18 03:55:04;;;;;;;23.20;21.40;;;;;;;23.74;50.58;95561.78;6228766;27;110642;-63
2023/09/18 03:58:08;;;;;;;19.83;18.02;;;;;;;23.41;51.30;95561.19;6247275;27;109176;-61
2023/09/18 04:01:11;;;;;;;19.83;17.83;;;;;;;23.25;53.01;95560.69;6249919;27;109278;-62
2023/09/18 04:04:14;;;;;;;20.00;18.50;;;;;;;23.09;52.17;95562.91;6254223;27;109901;-62
2023/09/18 04:07:19;;;;;;;19.13;17.63;;;;;;;22.98;52.97;95558.84;6249286;27;108837;-62
2023/09/18 04:10:22;;;;;;;16.95;15.65;;;;;;;22.90;52.39;95559.56;6259170;27;109130;-62
2023/09/18 04:13:28;;;;;;;16.30;15.00;;;;;;;23.00;52.35;95564.69;6256350;27;109957;-63
2023/09/18 04:16:35;;;;;;;16.90;15.50;;;;;;;23.03;51.74;95564.09;6261613;27;110122;-62
2023/09/18 04:19:38;;;;;;;18.10;16.40;;;;;;;22.92;52.67;95560.84;6234663;27;109133;-62
2023/09/18 04:22:45;;;;;;;17.37;15.77;;;;;;;22.86;52.39;95561.25;6260855;27;109276;-62
2023/09/18 04:25:48;;;;;;;17.35;15.85;;;;;;;22.76;52.10;95564.91;6262193;27;108966;-63
2023/09/18 04:28:53;;;;;;;17.97;16.47;;;;;;;22.54;52.99;95560.25;6250841;27;109520;-63
2023/09/18 04:31:57;;;;;;;18.73;17.13;;;;;;;22.56;53.07;95560.72;6259950;27;109221;-62
2023/09/18 04:35:00;;;;;;;18.00;16.50;;;;;;;22.56;52.71;95565.28;6261933;27;109407;-62
2023/09/18 04:38:04;;;;;;;18.10;16.50;;;;;;;22.47;52.49;95567.81;6261104;27;109272;-62
2023/09/18 04:41:09;;;;;;;16.80;15.40;;;;;;;22.59;52.65;95562.81;6250388;27;109267;-62
2023/09/18 04:44:14;;;;;;;17.30;15.90;;;;;;;22.45;53.11;95564.66;6261446;27;109120;-62
2023/09/18 04:47:17;;;;;;;17.90;16.38;;;;;;;22.35;52.78;95559.53;6260879;27;110551;-62
2023/09/18 04:50:20;;;;;;;17.25;15.82;;;;;;;22.52;52.37;95570.41;6261623;27;109012;-61
2023/09/18 04:53:23;;;;;;;17.53;16.03;;;;;;;22.62;52.05;95570.22;6250198;27;109331;-61
2023/09/18 04:56:27;;;;;;;17.80;16.37;;;;;;;22.54;52.42;95573.56;6261350;27;109330;-62
2023/09/18 04:59:31;;;;;;;17.60;16.10;;;;;;;22.39;53.01;95563.19;6261326;27;110105;-62
2023/09/18 05:02:35;;;;;;;18.13;16.60;;;;;;;22.56;52.83;95563.41;6256332;27;110018;-62
2023/09/18 05:05:38;;;;;;;18.65;17.08;;;;;;;22.48;52.69;95558.72;6255215;27;109708;-62
2023/09/18 05:08:41;;;;;;;18.05;16.40;;;;;;;22.74;52.06;95563.63;6261149;27;110215;-62
2023/09/18 05:11:44;;;;;;;18.87;17.27;;;;;;;22.85;51.65;95556.97;6261013;27;109089;-61
2023/09/18 05:14:50;;;;;;;18.90;17.30;;;;;;;22.98;51.76;95559.66;6249707;27;109335;-63
2023/09/18 05:17:57;;;;;;;18.20;16.60;;;;;;;22.96;51.87;95566.38;6260688;27;110129;-62
2023/09/18 05:21:01;;;;;;;19.60;17.90;;;;;;;22.86;52.00;95567.38;6261323;27;110180;-62
2023/09/18 05:24:05;;;;;;;19.20;17.70;;;;;;;22.80;51.74;95575.78;6261603;27;110293;-63
2023/09/18 05:27:08;;;;;;;19.75;17.98;;;;;;;22.78;51.81;95578.75;6249631;27;109248;-64
2023/09/18 05:30:21;;;;;;;19.95;18.25;;;;;;;22.75;51.92;95570.53;6260892;27;109165;-63
2023/09/18 05:33:24;;;;;;;22.25;20.33;;;;;;;22.75;52.23;95581.22;6260795;27;109006;-62
2023/09/18 05:36:28;;;;;;;21.42;19.65;;;;;;;22.65;52.44;95574.97;6257109;27;108966;-63
2023/09/18 05:39:32;;;;;;;20.15;18.52;;;;;;;22.55;53.38;95585.03;6254379;27;110238;-62
2023/09/18 05:42:36;;;;;;;20.10;18.60;;;;;;;22.52;53.11;95574.97;6260703;27;109463;-62
2023/09/18 05:45:41;;;;;;;22.07;20.27;;;;;;;22.59;53.28;95576.16;6260378;27;109130;-65
2023/09/18 05:48:44;;;;;;;26.67;24.37;;;;;;;22.76;54.04;95580.13;6249204;27;109035;-61
2023/09/18 05:51:48;;;;;;;22.97;21.10;;;;;;;23.13;52.96;95584.44;6259952;27;109038;-60
2023/09/18 05:54:52;;;;;;;22.08;20.17;;;;;;;23.38;51.72;95585.84;6260557;27;109272;-60
2023/09/18 05:57:55;;;;;;;21.60;19.90;;;;;;;23.45;51.55;95586.19;6259642;27;109780;-62
2023/09/18 06:01:00;;;;;;;20.10;18.30;;;;;;;23.16;52.47;95589.97;6250011;27;109895;-61
2023/09/18 06:04:04;;;;;;;19.45;17.80;;;;;;;23.35;51.53;95586.41;6234440;27;109119;-68
2023/09/18 06:07:07;;;;;;;19.50;17.80;;;;;;;23.55;51.30;95580.66;6247970;27;108978;-68
2023/09/18 06:10:13;;;;;;;17.85;16.20;;;;;;;23.71;50.54;95583.75;6260271;27;109094;-68
2023/09/18 06:13:16;;;;;;;17.17;15.77;;;;;;;23.81;50.06;95578.16;6249451;27;109653;-68
2023/09/18 06:16:20;;;;;;;17.00;15.60;;;;;;;23.94;50.21;95582.66;6259934;27;109348;-68
2023/09/18 06:19:24;;;;;;;17.48;16.10;;;;;;;24.06;49.68;95588.28;6259250;27;109058;-69
2023/09/18 06:22:27;;;;;;;15.90;14.60;;;;;;;24.16;49.51;95576.53;6254040;27;109057;-65
2023/09/18 06:25:31;;;;;;;17.17;15.68;;;;;;;24.25;49.55;95588.09;6256207;27;110153;-68
2023/09/18 06:28:34;;;;;;;16.13;14.83;;;;;;;24.30;49.85;95584.50;6259202;27;109031;-68
2023/09/18 06:31:39;;;;;;;16.30;14.90;;;;;;;24.36;49.49;95589.41;6259951;27;110501;-69
2023/09/18 06:34:44;;;;;;;16.07;14.67;;;;;;;24.42;49.11;95582.03;6248990;27;110368;-69
2023/09/18 06:37:47;;;;;;;15.50;14.30;;;;;;;24.49;48.97;95588.53;6259053;27;110099;-68
2023/09/18 06:40:52;;;;;;;16.10;14.70;;;;;;;24.60;48.91;95590.94;6259738;27;109044;-68
2023/09/18 06:43:55;;;;;;;15.70;14.40;;;;;;;24.69;48.80;95584.53;6259478;27;110157;-69
2023/09/18 06:46:59;;;;;;;15.45;14.15;;;;;;;24.77;48.49;95581.13;6247081;27;108758;-67
2023/09/18 06:50:04;;;;;;;16.60;15.20;;;;;;;24.85;48.41;95573.41;6259360;27;109173;-68
2023/09/18 06:53:07;;;;;;;16.70;15.40;;;;;;;24.89;48.52;95588.56;6259120;27;108593;-69
2023/09/18 06:56:12;;;;;;;16.23;14.93;;;;;;;24.92;48.67;95585.28;6254106;27;109224;-67
2023/09/18 06:59:15;;;;;;;16.10;14.80;;;;;;;24.97;47.98;95587.00;6252585;27;108980;-68
2023/09/18 07:02:20;;;;;;;17.17;15.68;;;;;;;25.01;48.09;95587.97;6259027;27;109063;-68
2023/09/18 07:05:23;;;;;;;16.40;15.10;;;;;;;25.06;47.85;95577.91;6258942;27;108993;-67
2023/09/18 07:08:26;;;;;;;16.65;15.27;;;;;;;25.00;47.88;95586.38;6247779;27;109537;-67
2023/09/18 07:11:29;;;;;;;16.63;15.32;;;;;;;24.95;47.96;95587.31;6259238;27;110111;-67
2023/09/18 07:14:33;;;;;;;15.77;14.48;;;;;;;24.99;47.84;95585.59;6259048;27;108990;-66
2023/09/18 07:17:37;;;;;;;16.73;15.32;;;;;;;24.99;47.82;95579.44;6262935;27;110288;-65
2023/09/18 07:20:41;;;;;;;16.60;15.20;;;;;;;25.06;47.61;95582.47;6252561;27;109127;-65
2023/09/18 07:23:45;;;;;;;16.07;14.73;;;;;;;25.06;47.49;95587.84;6263190;27;109400;-65
2023/09/18 07:26:49;;;;;;;17.00;15.60;;;;;;;25.07;47.73;95582.16;6262644;27;109083;-66
2023/09/18 07:29:52;;;;;;;15.87;14.47;;;;;;;25.12;47.34;95585.78;6238643;28;110254;-66
2023/09/18 07:32:57;;;;;;;16.70;15.40;;;;;;;25.16;47.36;95582.16;6242679;27;109385;-65
2023/09/18 07:36:01;;;;;;;16.35;15.05;;;;;;;25.17;47.24;95585.63;6263575;27;110180;-66
2023/09/18 07:39:05;;;;;;;16.17;14.77;;;;;;;25.16;47.09;95592.88;6262300;27;110948;-66
2023/09/18 07:42:08;;;;;;;17.25;15.75;;;;;;;25.19;47.44;95589.56;6253993;27;109263;-64
2023/09/18 07:45:11;;;;;;;16.63;15.02;;;;;;;25.20;47.27;95585.00;6262162;27;110008;-66
2023/09/18 07:48:19;;;;;;;17.42;15.85;;;;;;;25.17;47.30;95589.09;6262290;27;109187;-64
2023/09/18 07:51:23;;;;;;;17.90;16.20;;;;;;;25.14;47.15;95591.63;6262856;27;109009;-64
2023/09/18 07:54:27;;;;;;;17.17;15.48;;;;;;;25.20;46.95;95591.16;6252465;27;109705;-65
2023/09/18 07:57:34;;;;;;;17.75;16.17;;;;;;;25.29;46.58;95583.94;6261701;27;109062;-64
2023/09/18 08:00:37;;;;;;;17.00;15.50;;;;;;;25.37;46.72;95579.72;6263734;27;109037;-65
2023/09/18 08:03:41;;;;;;;16.97;15.47;;;;;;;25.36;46.34;95586.16;6261731;27;109243;-65
2023/09/18 08:06:45;;;;;;;16.55;15.05;;;;;;;25.38;46.62;95584.78;6251125;27;109189;-64
2023/09/18 08:09:49;;;;;;;16.63;15.23;;;;;;;25.41;46.45;95580.69;6262188;27;109352;-65
2023/09/18 08:12:53;;;;;;;16.75;15.25;;;;;;;25.51;46.16;95572.31;6262233;27;109008;-65
2023/09/18 08:15:56;;;;;;;15.85;14.45;;;;;;;25.58;46.08;95572.66;6256786;27;108943;-65
2023/09/18 08:19:02;;;;;;;15.77;14.40;;;;;;;25.52;46.06;95570.41;6261889;27;110211;-65
2023/09/18 08:22:05;;;;;;;15.68;14.27;;;;;;;25.55;45.90;95567.94;6262134;27;108941;-67
2023/09/18 08:25:10;;;;;;;15.80;14.40;;;;;;;25.60;46.19;95569.66;6262482;27;109181;-65
2023/09/18 08:28:15;;;;;;;15.73;14.32;;;;;;;25.64;46.21;95565.22;6249679;27;109146;-66
2023/09/18 08:31:18;;;;;;;15.30;14.00;;;;;;;25.62;45.71;95576.28;6262641;27;110106;-65
2023/09/18 08:34:22;;;;;;;16.27;14.68;;;;;;;25.60;45.87;95564.28;6261923;27;109145;-66
2023/09/18 08:37:28;;;;;;;14.95;13.55;;;;;;;25.62;46.08;95560.19;6256417;27;109090;-65
2023/09/18 08:40:31;;;;;;;15.40;13.90;;;;;;;25.58;45.74;95559.25;6257077;27;110278;-65
2023/09/18 08:43:34;;;;;;;14.77;13.47;;;;;;;25.56;45.95;95558.00;6261502;27;109205;-66
2023/09/18 08:46:38;;;;;;;15.38;14.07;;;;;;;25.60;45.91;95548.22;6262153;27;110405;-65
2023/09/18 08:49:43;;;;;;;14.90;13.60;;;;;;;25.66;45.27;95553.09;6250827;27;109735;-65
2023/09/18 08:52:48;;;;;;;14.90;13.60;;;;;;;25.72;45.64;95547.59;6261532;27;109012;-65
2023/09/18 08:55:51;;;;;;;15.48;14.07;;;;;;;25.78;45.65;95541.72;6261571;27;109208;-66
2023/09/18 08:58:56;;;;;;;15.35;14.05;;;;;;;25.86;45.39;95546.28;6260624;27;109007;-65
2023/09/18 09:01:59;;;;;;;14.63;13.43;;;;;;;25.81;45.39;95546.47;6251438;27;110330;-65
2023/09/18 09:05:04;;;;;;;14.60;13.30;;;;;;;25.77;45.37;95542.84;6261136;27;109389;-65
2023/09/18 09:08:08;;;;;;;14.30;13.00;;;;;;;25.72;45.14;95537.66;6261155;27;109201;-66
2023/09/18 09:11:11;;;;;;;14.33;13.13;;;;;;;25.75;45.84;95537.00;6261612;27;109231;-66
2023/09/18 09:14:18;;;;;;;14.57;13.37;;;;;;;25.85;45.65;95539.34;6250172;27;109943;-66
2023/09/18 09:17:21;;;;;;;13.15;12.05;;;;;;;25.92;45.21;95541.56;6260578;27;109066;-66
2023/09/18 09:20:26;;;;;;;13.75;12.65;;;;;;;25.94;45.05;95539.34;6261334;27;109011;-66
2023/09/18 09:23:31;;;;;;;13.93;12.80;;;;;;;25.89;44.89;95540.31;6251298;27;108966;-68
2023/09/18 09:26:35;;;;;;;13.50;12.30;;;;;;;25.87;44.74;95541.72;6260911;27;109070;-65
2023/09/18 09:29:39;;;;;;;12.50;11.40;;;;;;;25.86;44.71;95535.56;6260812;27;109137;-65
2023/09/18 09:32:48;;;;;;;12.82;11.68;;;;;;;25.85;44.85;95533.19;6260775;27;109152;-65
2023/09/18 09:35:52;;;;;;;12.65;11.55;;;;;;;25.93;44.56;95521.69;6250086;27;109131;-60
2023/09/18 09:38:58;;;;;;;12.80;11.70;;;;;;;25.95;44.36;95519.47;6259385;27;110157;-60
2023/09/18 09:42:03;;;;;;;12.20;11.00;;;;;;;25.97;44.13;95512.69;6260621;27;109022;-62
2023/09/18 09:45:12;;;;;;;13.13;11.73;;;;;;;26.01;44.52;95523.56;6261124;27;110118;-60
2023/09/18 09:48:16;;;;;;;12.43;11.32;;;;;;;25.99;44.33;95523.09;6248264;27;109776;-60
2023/09/18 09:51:21;;;;;;;11.32;10.43;;;;;;;25.84;44.45;95510.16;6260266;27;109145;-60
2023/09/18 09:54:34;;;;;;;11.63;10.70;;;;;;;25.82;43.97;95507.81;6260097;27;109073;-60
2023/09/18 09:57:48;;;;;;;11.48;10.57;;;;;;;25.87;43.87;95504.16;6249030;27;110166;-61
2023/09/18 10:00:55;;;;;;;11.52;10.63;;;;;;;25.91;44.20;95502.44;6260087;27;109095;-60
2023/09/18 10:04:00;;;;;;;11.00;10.00;;;;;;;25.88;44.03;95508.44;6259921;27;110085;-61
2023/09/18 10:07:08;;;;;;;10.50;9.60;;;;;;;25.87;43.77;95502.28;6259597;27;109546;-60
2023/09/18 10:10:12;;;;;;;11.27;10.27;;;;;;;25.81;43.69;95497.41;6226222;27;109918;-60
2023/09/18 10:13:18;;;;;;;11.13;10.13;;;;;;;25.86;43.99;95489.97;6256301;27;110721;-60
2023/09/18 10:16:25;;;;;;;10.55;9.55;;;;;;;25.90;43.73;95496.28;6260346;27;110115;-61
2023/09/18 10:19:35;;;;;;;9.85;8.95;;;;;;;25.91;44.15;95489.03;6258976;27;109210;-63
2023/09/18 10:22:46;;;;;;;10.82;9.93;;;;;;;25.88;43.34;95495.03;6254172;27;109454;-60
2023/09/18 10:25:50;;;;;;;9.90;9.10;;;;;;;25.82;43.53;95491.72;6260797;27;110241;-61
2023/09/18 10:28:58;;;;;;;10.10;9.20;;;;;;;25.82;43.39;95482.91;6253186;27;109523;-59
2023/09/18 10:32:05;;;;;;;10.43;9.53;;;;;;;25.80;43.74;95477.84;6249263;27;109398;-62
2023/09/18 10:35:09;;;;;;;10.10;9.20;;;;;;;25.81;43.38;95478.63;6234826;27;109234;-61
2023/09/18 10:38:16;;;;;;;9.63;8.73;;;;;;;25.77;43.48;95466.97;6253236;27;109019;-60
2023/09/18 10:41:21;;;;;;;9.80;8.90;;;;;;;25.79;43.76;95468.22;6260411;27;108941;-62
2023/09/18 10:44:25;;;;;;;9.73;8.93;;;;;;;25.76;43.53;95468.88;6249247;27;109161;-65
2023/09/18 10:47:28;;;;;;;9.33;8.53;;;;;;;25.72;43.67;95457.22;6259073;27;109212;-65
2023/09/18 10:50:32;;;;;;;9.60;8.70;;;;;;;25.69;43.86;95457.84;6259635;27;108845;-65
2023/09/18 10:53:36;;;;;;;9.20;8.50;;;;;;;25.64;43.97;95456.13;6259392;27;110119;-64
2023/09/18 10:56:40;;;;;;;9.00;8.20;;;;;;;25.64;43.94;95445.41;6250859;27;108927;-65
2023/09/18 10:59:47;;;;;;;9.10;8.40;;;;;;;25.61;43.99;95443.34;6259301;27;111041;-65
2023/09/18 11:02:52;;;;;;;8.68;7.97;;;;;;;25.59;43.97;95444.78;6259273;27;108972;-66
2023/09/18 11:06:07;;;;;;;9.20;8.40;;;;;;;25.59;44.03;95436.75;6249031;27;109057;-65
2023/09/18 11:09:20;;;;;;;9.00;8.20;;;;;;;25.59;43.71;95432.16;6254309;27;109065;-66
2023/09/18 11:12:43;;;;;;;9.23;8.43;;;;;;;25.61;44.30;95429.97;6259205;27;109201;-65
2023/09/18 11:15:46;;;;;;;9.00;8.30;;;;;;;25.58;44.05;95422.56;6259471;27;109824;-66
2023/09/18 11:18:53;;;;;;;9.38;8.55;;;;;;;25.57;43.88;95423.66;6248067;27;110256;-66
2023/09/18 11:22:08;;;;;;;8.50;7.80;;;;;;;25.58;44.30;95419.88;6259113;27;109047;-65
2023/09/18 11:25:42;;;;;;;9.10;8.30;;;;;;;25.56;43.72;95426.66;6259407;27;109444;-66
2023/09/18 11:28:49;;;;;;;9.00;8.20;;;;;;;25.50;43.93;95422.56;6248657;27;110143;-65
2023/09/18 11:31:55;;;;;;;8.60;7.80;;;;;;;25.46;43.64;95417.06;6259124;27;109022;-66
2023/09/18 11:35:08;;;;;;;8.40;7.70;;;;;;;25.47;43.58;95410.59;6259251;27;110127;-68
2023/09/18 11:38:14;;;;;;;8.75;8.05;;;;;;;25.54;43.89;95405.56;6258052;27;109601;-66
2023/09/18 11:41:24;;;;;;;8.60;7.80;;;;;;;25.61;43.92;95402.38;6248097;27;109250;-66
2023/09/18 11:44:40;;;;;;;8.93;8.13;;;;;;;25.65;44.18;95403.28;6251741;27;109235;-65
2023/09/18 11:47:46;;;;;;;8.73;8.02;;;;;;;25.64;43.84;95401.72;6257797;27;108973;-63
2023/09/18 11:50:50;;;;;;;8.75;7.85;;;;;;;25.58;43.61;95386.94;6254210;27;110142;-65
2023/09/18 11:53:56;;;;;;;8.37;7.67;;;;;;;25.52;43.74;95388.97;6252816;27;109027;-65
2023/09/18 11:57:06;;;;;;;8.30;7.60;;;;;;;25.47;43.91;95383.78;6257823;27;108838;-60
2023/09/18 12:00:23;;;;;;;7.97;7.30;;;;;;;25.46;43.78;95376.84;6259180;27;108976;-59
2023/09/18 12:03:27;;;;;;;8.40;7.70;;;;;;;25.45;43.88;95385.22;6251337;27;110005;-60
2023/09/18 12:06:30;;;;;;;8.82;8.02;;;;;;;25.46;44.03;95378.75;6263004;27;109099;-60
2023/09/18 12:09:34;;;;;;;8.30;7.70;;;;;;;25.43;43.97;95385.53;6260863;27;109434;-60
2023/09/18 12:12:39;;;;;;;8.93;8.15;;;;;;;25.37;44.10;95392.97;6262844;27;109187;-60
2023/09/18 12:15:43;;;;;;;8.57;7.88;;;;;;;25.37;43.94;95389.47;6252296;27;109357;-61
2023/09/18 12:18:47;;;;;;;8.48;7.78;;;;;;;25.37;44.23;95394.84;6261983;27;108912;-61
2023/09/18 12:21:50;;;;;;;8.10;7.40;;;;;;;25.38;44.05;95377.69;6262834;27;110501;-61
2023/09/18 12:24:54;;;;;;;8.70;8.00;;;;;;;25.36;43.89;95388.69;6260078;27;109452;-64
2023/09/18 12:28:00;;;;;;;8.60;7.90;;;;;;;25.34;44.16;95385.50;6255078;27;108775;-61
2023/09/18 12:31:04;;;;;;;8.65;7.95;;;;;;;25.33;44.17;95375.91;6262954;27;109056;-61
2023/09/18 12:34:15;;;;;;;9.00;8.30;;;;;;;25.31;43.91;95378.13;6262480;27;110054;-60
2023/09/18 12:37:18;;;;;;;8.90;8.20;;;;;;;25.30;44.38;95386.47;6252025;27;109075;-60
2023/09/18 12:40:26;;;;;;;8.80;8.10;;;;;;;25.24;44.10;95377.03;6261938;27;110037;-60
2023/09/18 12:43:31;;;;;;;8.30;7.70;;;;;;;25.21;44.47;95375.78;6262330;27;109224;-60
2023/09/18 12:46:36;;;;;;;8.15;7.45;;;;;;;25.20;44.36;95373.41;6262501;27;110088;-61
2023/09/18 12:49:39;;;;;;;9.00;8.20;;;;;;;25.21;44.23;95372.31;6250398;27;109671;-60
2023/09/18 12:52:43;;;;;;;8.20;7.40;;;;;;;25.18;44.18;95362.22;6261722;27;109292;-60
2023/09/18 12:55:46;;;;;;;7.97;7.28;;;;;;;25.22;44.13;95363.19;6262005;27;109092;-61
2023/09/18 12:58:50;;;;;;;8.50;7.70;;;;;;;25.23;44.14;95368.22;6261104;27;109256;-61
2023/09/18 13:02:14;;;;;;;7.68;7.07;;;;;;;25.22;44.22;95368.53;6256659;27;110265;-60
2023/09/18 13:05:20;;;;;;;8.02;7.40;;;;;;;25.20;44.18;95365.38;6261688;27;110067;-60
2023/09/18 13:08:24;;;;;;;7.93;7.23;;;;;;;25.18;44.16;95365.69;6260557;27;108829;-60
2023/09/18 13:11:28;;;;;;;7.57;6.97;;;;;;;25.21;44.04;95359.72;6251203;27;109956;-62
2023/09/18 13:15:00;;;;;;;7.40;6.80;;;;;;;25.23;44.15;95362.06;6260880;27;109103;-60
2023/09/18 13:18:12;;;;;;;7.53;6.93;;;;;;;25.21;44.22;95362.41;6261065;27;109987;-61
2023/09/18 13:21:15;;;;;;;7.87;7.17;;;;;;;25.21;44.20;95358.94;6261313;27;109611;-60
2023/09/18 13:24:28;;;;;;;7.73;7.03;;;;;;;25.16;44.26;95348.38;6251337;27;111571;-60
2023/09/18 13:27:31;;;;;;;7.40;6.80;;;;;;;25.15;44.35;95352.16;6260534;27;109285;-60
2023/09/18 13:30:39;;;;;;;7.82;7.03;;;;;;;25.17;44.22;95355.28;6261552;27;110241;-60
2023/09/18 13:33:44;;;;;;;7.50;6.80;;;;;;;25.14;43.92;95351.34;6255506;27;109123;-60
2023/09/18 13:36:48;;;;;;;7.45;6.85;;;;;;;25.15;44.26;95342.22;6255257;27;109002;-61
2023/09/18 13:39:51;;;;;;;7.78;6.97;;;;;;;25.17;44.21;95353.41;6258619;27;109419;-60
2023/09/18 13:42:54;;;;;;;7.85;7.25;;;;;;;25.14;44.07;95342.53;6260463;27;109123;-60
2023/09/18 13:45:59;;;;;;;7.83;7.20;;;;;;;25.15;44.14;95347.56;6250048;27;110383;-59
2023/09/18 13:49:03;;;;;;;7.95;7.35;;;;;;;25.18;43.85;95340.78;6259530;27;109277;-61
2023/09/18 13:52:07;;;;;;;7.90;7.30;;;;;;;25.17;44.03;95340.00;6261126;27;109067;-60
2023/09/18 13:55:10;;;;;;;7.90;7.20;;;;;;;25.19;43.95;95339.69;6260623;27;110160;-60
2023/09/18 13:58:13;;;;;;;8.20;7.60;;;;;;;25.20;44.07;95346.63;6248425;27;109292;-59
2023/09/18 14:01:18;;;;;;;9.05;8.15;;;;;;;25.12;43.61;95342.06;6260628;27;109068;-60
2023/09/18 14:04:23;;;;;;;7.53;6.93;;;;;;;25.06;44.42;95339.56;6260292;27;108777;-60
2023/09/18 14:07:26;;;;;;;7.85;7.25;;;;;;;25.06;44.13;95346.81;6255862;27;110408;-65